Data for 03/25/2008

Time Sea-Level Adjusted Pressure Absolute Pressure Temperature Relative Humidity Dew Point   
(mb) (inHg) (mb) (inHg) (C) (F) (%) (C) (F)
00:05 1016 30 845 24.95 -1.6 29.2 55 -9.5 14.9
00:10 1016 30 845 24.95 -1.5 29.3 54 -9.6 14.7
00:15 1016 30 845 24.95 -1.4 29.5 53 -9.7 14.6
00:20 1016 30 845 24.95 -1.4 29.5 53 -9.8 14.3
00:25 1016 30 845 24.95 -1.4 29.5 53 -9.7 14.5
00:30 1016 30 846 24.98 -1.4 29.5 54 -9.5 14.8
00:35 1016 30 846 24.98 -1.6 29 56 -9.4 15
00:40 1016 30 846 24.98 -1.8 28.8 57 -9.2 15.5
00:45 1016 30 846 24.98 -2 28.4 58 -9.1 15.7
00:50 1016 30 846 24.98 -1.9 28.6 57 -9.3 15.3
00:55 1016 30 846 24.98 -1.8 28.8 56 -9.4 15.1
01:00 1016 30 846 24.98 -1.7 28.9 56 -9.4 15
01:05 1016 30 846 24.98 -1.7 28.9 55 -9.5 14.8
01:10 1016 30 846 24.98 -1.6 29 53 -10 13.9
01:15 1016 30 845 24.95 -1.6 29.1 52 -10.2 13.6
01:20 1016 30 845 24.95 -1.6 29 52 -10.3 13.4
01:25 1016 30 846 24.98 -1.7 29 51 -10.6 13
01:30 1016 30 846 24.98 -1.7 29 50 -10.8 12.6
01:35 1016 30 846 24.98 -1.8 28.8 50 -10.8 12.5
01:40 1016 30 846 24.98 -1.9 28.5 51 -10.8 12.6
01:45 1016 30 846 24.98 -2 28.5 51 -10.9 12.4
01:50 1016 30 846 24.98 -2 28.3 51 -11 12.3
01:55 1016 30 846 24.98 -2.2 28 51 -11.1 12
02:00 1016 30 846 24.98 -2.3 27.8 51 -11.2 11.9
02:05 1016 30 846 24.98 -2.3 27.8 50 -11.4 11.6
02:10 1016 30 846 24.98 -2.2 28 50 -11.3 11.7
02:15 1017 30.03 846 24.98 -2.1 28.3 49 -11.3 11.7
02:20 1017 30.03 846 24.98 -2.1 28.2 49 -11.4 11.5
02:25 1017 30.03 846 24.98 -2.2 28 49 -11.5 11.2
02:30 1017 30.03 846 24.98 -2.3 27.8 49 -11.6 11.1
02:35 1017 30.03 846 24.98 -2.5 27.6 50 -11.5 11.3
02:40 1017 30.03 846 24.98 -2.6 27.4 50 -11.5 11.3
02:45 1017 30.03 846 24.98 -2.7 27.2 51 -11.5 11.3
02:50 1017 30.03 846 24.98 -2.7 27.1 50 -11.7 11
02:55 1017 30.03 846 24.98 -2.7 27.1 50 -11.7 10.9
03:00 1017 30.03 846 24.98 -2.8 27 50 -11.9 10.7
03:05 1017 30.03 846 24.98 -2.8 27 50 -11.9 10.6
03:10 1017 30.03 846 24.98 -2.8 26.9 50 -12 10.5
03:15 1017 30.03 846 24.98 -2.9 26.7 51 -11.8 10.7
03:20 1017 30.03 846 24.98 -3.1 26.5 51 -11.8 10.7
03:25 1017 30.03 846 24.98 -3.2 26.3 52 -11.7 10.9
03:30 1017 30.03 846 24.98 -3.2 26.2 53 -11.6 11.1
03:35 1017 30.03 846 24.98 -3.3 26 54 -11.5 11.3
03:40 1017 30.03 846 24.98 -3.6 25.6 56 -11.1 11.9
03:45 1017 30.03 846 24.98 -3.8 25.1 59 -10.7 12.7
03:50 1017 30.03 846 24.98 -4.2 24.4 63 -10.2 13.6
03:55 1017 30.03 846 24.98 -4.4 24.2 65 -9.9 14.2
04:00 1017 30.03 846 24.98 -4.5 23.9 65 -10 14
04:05 1017 30.03 846 24.98 -4.5 23.9 64 -10.2 13.6
04:10 1017 30.03 846 24.98 -4.5 23.8 62 -10.7 12.7
04:15 1017 30.03 846 24.98 -4.6 23.8 61 -11.1 12.1
04:20 1017 30.03 846 24.98 -4.5 24 60 -11.1 12
04:25 1017 30.03 846 24.98 -4.7 23.5 60 -11.3 11.6
04:30 1017 30.03 846 24.98 -4.7 23.5 60 -11.4 11.6
04:35 1017 30.03 846 24.98 -4.7 23.5 61 -11.2 11.9
04:40 1017 30.03 846 24.98 -4.5 23.9 61 -11 12.2
04:45 1017 30.03 846 24.98 -4.5 23.9 61 -11 12.2
04:50 1017 30.03 846 24.98 -4.8 23.4 61 -11.1 12.1
04:55 1017 30.03 846 24.98 -4.6 23.7 62 -10.9 12.4
05:00 1017 30.03 846 24.98 -4.2 24.5 61 -10.7 12.8
05:05 1017 30.03 846 24.98 -4 24.8 60 -10.7 12.8
05:10 1017 30.03 846 24.98 -4.1 24.7 61 -10.5 13
05:15 1017 30.03 846 24.98 -4.2 24.4 61 -10.7 12.8
05:20 1017 30.03 846 24.98 -4.3 24.3 61 -10.7 12.7
05:25 1017 30.03 846 24.98 -4.5 23.8 62 -10.7 12.8
05:30 1017 30.03 846 24.98 -4.7 23.5 63 -10.6 12.8
05:35 1017 30.03 846 24.98 -4.8 23.3 65 -10.5 13.2
05:40 1017 30.03 846 24.98 -4.9 23.2 65 -10.5 13.1
05:45 1017 30.03 846 24.98 -4.9 23.2 64 -10.6 12.9
05:50 1017 30.03 846 24.98 -4.9 23.2 64 -10.6 12.8
05:55 1017 30.03 846 24.98 -4.8 23.3 64 -10.6 12.9
06:00 1017 30.03 846 24.98 -4.9 23.2 64 -10.7 12.8
06:05 1017 30.03 846 24.98 -5 23.1 64 -10.7 12.7
06:10 1017 30.03 846 24.98 -5 23 65 -10.7 12.8
06:15 1017 30.03 846 24.98 -5.1 22.9 65 -10.6 12.9
06:20 1017 30.03 846 24.98 -5.1 22.7 65 -10.7 12.7
06:25 1017 30.03 846 24.98 -5.2 22.6 65 -10.8 12.6
06:30 1017 30.03 846 24.98 -5.2 22.6 65 -10.7 12.7
06:35 1017 30.03 846 24.98 -5.3 22.6 66 -10.7 12.7
06:40 1017 30.03 846 24.98 -5.3 22.5 66 -10.7 12.8
06:45 1017 30.03 846 24.98 -5.3 22.4 66 -10.7 12.8
06:50 1017 30.03 846 24.98 -5.3 22.4 66 -10.7 12.8
06:55 1017 30.03 846 24.98 -5.4 22.3 67 -10.7 12.8
07:00 1017 30.03 846 24.98 -5.5 22.1 67 -10.7 12.8
07:05 1017 30.03 846 24.98 -5.6 22 67 -10.7 12.8
07:10 1017 30.03 846 24.98 -5.7 21.8 68 -10.7 12.7
07:15 1017 30.03 846 24.98 -5.9 21.5 68 -10.8 12.6
07:20 1017 30.03 846 24.98 -5.9 21.3 68 -10.9 12.4
07:25 1017 30.03 846 24.98 -6 21.2 68 -10.9 12.3
07:30 1016 30 846 24.98 -6 21.2 68 -11 12.2
07:35 1016 30 846 24.98 -6 21.2 67 -11.1 12
07:40 1016 30 846 24.98 -5.8 21.5 66 -11.1 12
07:45 1017 30.03 846 24.98 -5.7 21.7 66 -11.1 12
07:50 1017 30.03 846 24.98 -5.5 22 66 -11 12.2
07:55 1017 30.03 846 24.98 -5.4 22.3 66 -10.9 12.4
08:00 1017 30.03 846 24.98 -5.2 22.6 65 -10.8 12.5
08:05 1017 30.03 846 24.98 -5.1 22.8 65 -10.8 12.6
08:10 1017 30.03 846 24.98 -5 23.1 64 -10.7 12.8
08:15 1017 30.03 846 24.98 -4.8 23.4 64 -10.7 12.8
08:20 1017 30.03 846 24.98 -4.7 23.6 63 -10.6 12.9
08:25 1017 30.03 846 24.98 -4.4 24.1 63 -10.4 13.2
08:30 1017 30.03 846 24.98 -4.2 24.4 63 -10.2 13.6
08:35 1017 30.03 846 24.98 -4.1 24.6 64 -10 14
08:40 1017 30.03 846 24.98 -3.9 25 62 -10 13.9
08:45 1017 30.03 846 24.98 -3.8 25.2 61 -10.2 13.7
08:50 1017 30.03 846 24.98 -3.8 25.2 60 -10.5 13.1
08:55 1017 30.03 846 24.98 -3.8 25.2 60 -10.4 13.2
09:00 1017 30.03 846 24.98 -3.6 25.5 59 -10.5 13.2
09:05 1017 30.03 846 24.98 -3.3 26.1 58 -10.4 13.3
09:10 1017 30.03 846 24.98 -2.9 26.7 56 -10.4 13.2
09:15 1017 30.03 846 24.98 -2.6 27.4 56 -10.3 13.5
09:20 1017 30.03 846 24.98 -2.2 28 55 -10.2 13.6
09:25 1017 30.03 846 24.98 -1.9 28.6 53 -10.3 13.4
09:30 1017 30.03 846 24.98 -1.5 29.3 50 -10.7 12.7
09:35 1017 30.03 846 24.98 -1.4 29.4 49 -10.8 12.5
09:40 1017 30.03 846 24.98 -1.2 29.9 48 -10.9 12.3
09:45 1017 30.03 846 24.98 -1.2 29.9 47 -11.1 12
09:50 1017 30.03 846 24.98 -0.7 30.7 46 -11.1 12.1
09:55 1017 30.03 846 24.98 -0.9 30.3 46 -11 12.1
10:00 1017 30.03 846 24.98 -0.8 30.6 46 -10.9 12.3
10:05 1017 30.03 846 24.98 -1 30.2 47 -11 12.2
10:10 1017 30.03 846 24.98 -0.7 30.8 45 -11.1 12.1
10:15 1017 30.03 846 24.98 -0.6 31 46 -10.9 12.3
10:20 1017 30.03 846 24.98 -0 32 45 -10.7 12.8
10:25 1017 30.03 846 24.98 0.4 32.8 43 -10.7 12.8
10:30 1017 30.03 846 24.98 1 33.8 41 -10.8 12.6
10:35 1017 30.03 846 24.98 1.3 34.3 40 -10.8 12.5
10:40 1017 30.03 846 24.98 0.7 33.3 41 -11.1 12.1
10:45 1017 30.03 846 24.98 1 33.8 40 -11.3 11.7
10:50 1017 30.03 846 24.98 1.5 34.7 39 -11.2 11.9
10:55 1017 30.03 846 24.98 1.8 35.3 37 -11.2 11.8
11:00 1017 30.03 846 24.98 1.9 35.3 38 -11.1 12
11:05 1017 30.03 846 24.98 1.5 34.7 38 -11.3 11.7
11:10 1017 30.03 846 24.98 1.3 34.4 38 -11.4 11.5
11:15 1017 30.03 846 24.98 1.7 35 37 -11.4 11.5
11:20 1017 30.03 846 24.98 1.9 35.3 38 -11.1 12
11:25 1017 30.03 846 24.98 2.4 36.3 37 -10.9 12.3
11:30 1017 30.03 846 24.98 2.6 36.7 36 -11.2 11.8
11:35 1017 30.03 846 24.98 2 35.6 39 -10.6 12.9
11:40 1017 30.03 846 24.98 2 35.6 39 -10.5 13.1
11:45 1017 30.03 846 24.98 1.9 35.4 40 -10.3 13.4
11:50 1017 30.03 846 24.98 2.1 35.7 40 -10.2 13.6
11:55 1017 30.03 846 24.98 2.1 35.8 38 -10.8 12.6
12:00 1016 30 846 24.98 1.7 35 40 -10.4 13.3
12:05 1016 30 846 24.98 2.6 36.7 38 -10.3 13.5
12:10 1016 30 846 24.98 2.6 36.6 38 -10.3 13.5
12:15 1016 30 846 24.98 3.2 37.8 37 -10 14
12:20 1016 30 845 24.95 4.1 39.4 34 -10.4 13.2
12:25 1016 30 845 24.95 3.4 38.1 35 -10.5 13.1
12:30 1016 30 845 24.95 2.8 37 36 -10.7 12.7
12:35 1016 30 845 24.95 2.3 36.1 39 -10.3 13.4
12:40 1016 30 845 24.95 2.9 37.2 38 -10.2 13.7
12:45 1016 30 845 24.95 3.5 38.4 35 -10.6 13
12:50 1016 30 845 24.95 3.9 39 35 -10.3 13.4
12:55 1016 30 845 24.95 4.2 39.6 34 -10.3 13.4
13:00 1016 30 845 24.95 4.2 39.5 33 -10.6 12.9
13:05 1016 30 845 24.95 3.4 38.1 35 -10.7 12.7
13:10 1016 30 845 24.95 2.7 36.9 37 -10.6 13
13:15 1016 30 845 24.95 3.1 37.6 36 -10.4 13.2
13:20 1016 30 845 24.95 4.5 40.1 34 -10 14
13:25 1016 30 845 24.95 5 41 33 -10.1 13.9
13:30 1016 30 845 24.95 4.8 40.7 33 -10.1 13.9
13:35 1016 30 845 24.95 4.6 40.2 34 -9.8 14.3
13:40 1016 30 845 24.95 4.4 39.9 35 -9.9 14.2
13:45 1016 30 845 24.95 3.9 39 36 -9.9 14.3
13:50 1016 30 845 24.95 4.1 39.3 38 -9.1 15.6
13:55 1016 30 845 24.95 4 39.1 36 -10 14.1
14:00 1016 30 845 24.95 4.3 39.7 37 -9.3 15.3
14:05 1016 30 845 24.95 5.1 41.3 34 -9.3 15.2
14:10 1015 29.97 845 24.95 5.5 41.9 34 -9.2 15.5
14:15 1015 29.97 845 24.95 5.5 42 35 -8.9 16
14:20 1015 29.97 845 24.95 5.6 42 34 -8.9 16
14:25 1015 29.97 844 24.92 5.4 41.7 36 -8.5 16.7
14:30 1015 29.97 845 24.95 4.8 40.6 36 -9 15.7
14:35 1015 29.97 844 24.92 3.9 39.1 40 -8.6 16.6
14:40 1015 29.97 844 24.92 4.7 40.5 36 -9 15.8
14:45 1015 29.97 844 24.92 4.6 40.2 38 -8.6 16.6
14:50 1015 29.97 844 24.92 4.4 39.9 38 -8.8 16.1
14:55 1015 29.97 844 24.92 3.7 38.7 39 -8.9 16
15:00 1015 29.97 844 24.92 3.6 38.5 40 -8.8 16.2
15:05 1015 29.97 844 24.92 4.4 40 38 -8.8 16.1
15:10 1015 29.97 844 24.92 4 39.3 38 -9 15.8
15:15 1015 29.97 844 24.92 4 39.2 39 -8.7 16.3
15:20 1015 29.97 844 24.92 3.7 38.7 40 -8.6 16.6
15:25 1015 29.97 844 24.92 4.5 40.2 38 -8.7 16.4
15:30 1015 29.97 844 24.92 3.8 38.9 40 -8.5 16.6
15:35 1015 29.97 844 24.92 5.2 41.3 37 -8.3 17
15:40 1015 29.97 844 24.92 5.1 41.1 38 -8.2 17.2
15:45 1015 29.97 844 24.92 4.4 40 40 -8 17.5
15:50 1015 29.97 844 24.92 5.3 41.5 37 -8.3 17.1
15:55 1015 29.97 844 24.92 5.8 42.4 36 -8.1 17.4
16:00 1015 29.97 844 24.92 4.1 39.4 39 -8.7 16.4
16:05 1015 29.97 844 24.92 4.8 40.6 37 -8.6 16.5
16:10 1015 29.97 844 24.92 4.3 39.8 38 -8.7 16.4
16:15 1015 29.97 844 24.92 4 39.2 39 -8.8 16.1
16:20 1015 29.97 844 24.92 4.5 40 38 -8.7 16.4
16:25 1015 29.97 844 24.92 3.9 39 39 -8.8 16.2
16:30 1014 29.94 844 24.92 4.4 39.9 37 -8.9 15.9
16:35 1014 29.94 844 24.92 3.9 39 39 -8.9 15.9
16:40 1014 29.94 844 24.92 4 39.2 38 -9.1 15.7
16:45 1014 29.94 844 24.92 3.9 39 39 -8.7 16.3
16:50 1014 29.94 844 24.92 4.4 39.9 38 -8.7 16.3
16:55 1014 29.94 844 24.92 5.1 41.2 35 -9.1 15.6
17:00 1014 29.94 844 24.92 4.9 40.8 36 -8.9 16
17:05 1014 29.94 844 24.92 5.8 42.5 34 -9 15.8
17:10 1014 29.94 844 24.92 4.7 40.4 36 -9.1 15.7
17:15 1014 29.94 844 24.92 4.4 39.9 37 -8.9 16
17:20 1014 29.94 844 24.92 4.8 40.6 35 -9.4 15.1
17:25 1014 29.94 844 24.92 4.5 40 37 -9 15.9
17:30 1014 29.94 844 24.92 4.3 39.7 37 -9 15.7
17:35 1014 29.94 844 24.92 5.2 41.3 35 -9.2 15.5
17:40 1014 29.94 844 24.92 5.8 42.5 33 -9.1 15.6
17:45 1014 29.94 843 24.89 6.4 43.4 32 -9 15.8
17:50 1014 29.94 843 24.89 6.6 43.9 31 -9.2 15.5
17:55 1014 29.94 843 24.89 5.2 41.3 35 -9.2 15.5
18:00 1014 29.94 843 24.89 4.6 40.3 35 -9.5 14.9
18:05 1014 29.94 843 24.89 4.4 39.9 36 -9.3 15.2
18:10 1014 29.94 843 24.89 3.9 39.1 37 -9.4 15
18:15 1014 29.94 843 24.89 4 39.3 37 -9.5 15
18:20 1014 29.94 843 24.89 4.6 40.3 35 -9.4 15.1
18:25 1014 29.94 843 24.89 5.4 41.7 34 -9.2 15.5
18:30 1014 29.94 843 24.89 5.4 41.8 34 -9.2 15.4
18:35 1014 29.94 843 24.89 5.3 41.5 35 -9.1 15.6
18:40 1014 29.94 843 24.89 5.1 41.2 35 -9 15.7
18:45 1014 29.94 843 24.89 4.8 40.7 38 -8.2 17.2
18:50 1014 29.94 843 24.89 4.1 39.4 40 -8.2 17.2
18:55 1014 29.94 843 24.89 4 39.1 41 -8.1 17.4
19:00 1014 29.94 843 24.89 3.9 39 41 -8.3 17.1
19:05 1014 29.94 843 24.89 3.8 38.9 41 -8.1 17.4
19:10 1014 29.94 843 24.89 4 39.2 40 -8.5 16.7
19:15 1014 29.94 844 24.92 4 39.1 39 -8.9 16.1
19:20 1014 29.94 844 24.92 4 39.1 42 -7.8 18
19:25 1014 29.94 844 24.92 3.6 38.5 43 -7.9 17.8
19:30 1014 29.94 844 24.92 3.3 37.9 44 -7.9 17.7
19:35 1014 29.94 844 24.92 3.2 37.8 44 -7.8 17.9
19:40 1014 29.94 844 24.92 3.1 37.6 45 -7.6 18.3
19:45 1014 29.94 844 24.92 3 37.3 46 -7.5 18.4
19:50 1014 29.94 844 24.92 3 37.4 47 -7.3 18.9
19:55 1014 29.94 844 24.92 2.9 37.2 48 -7.1 19.3
20:00 1014 29.94 844 24.92 2.7 36.8 49 -7.1 19.2
20:05 1014 29.94 844 24.92 2.6 36.7 50 -6.8 19.7
20:10 1015 29.97 844 24.92 2.4 36.3 52 -6.6 20.1
20:15 1014 29.94 844 24.92 2.2 35.9 53 -6.4 20.5
20:20 1014 29.94 844 24.92 2 35.5 54 -6.3 20.7
20:25 1014 29.94 844 24.92 2 35.6 54 -6.2 20.8
20:30 1015 29.97 844 24.92 1.9 35.5 55 -6.3 20.7
20:35 1015 29.97 844 24.92 1.8 35.2 55 -6.3 20.7
20:40 1015 29.97 844 24.92 1.5 34.8 58 -5.9 21.3
20:45 1015 29.97 844 24.92 1.3 34.3 58 -6.1 21
20:50 1015 29.97 844 24.92 1.3 34.3 56 -6.6 20.1
20:55 1015 29.97 844 24.92 1.4 34.5 53 -7.2 19
21:00 1015 29.97 844 24.92 1.5 34.6 51 -7.6 18.4
21:05 1015 29.97 844 24.92 1.6 34.8 50 -7.8 18
21:10 1015 29.97 844 24.92 1.6 34.9 50 -7.7 18.2
21:15 1015 29.97 844 24.92 1.7 35 49 -7.8 18
21:20 1015 29.97 844 24.92 1.7 35 49 -7.9 17.8
21:25 1015 29.97 844 24.92 1.6 34.9 51 -7.4 18.7
21:30 1015 29.97 844 24.92 1.6 34.8 54 -6.7 19.9
21:35 1015 29.97 844 24.92 1.4 34.5 56 -6.4 20.5
21:40 1015 29.97 844 24.92 1.2 34.1 57 -6.3 20.6
21:45 1015 29.97 844 24.92 1.1 33.9 59 -6.2 20.9
21:50 1015 29.97 844 24.92 0.9 33.6 60 -6.1 21
21:55 1015 29.97 844 24.92 0.7 33.3 60 -6.1 21.1
22:00 1015 29.97 844 24.92 0.7 33.2 61 -6.1 21
22:05 1015 29.97 844 24.92 0.6 33.1 62 -5.9 21.4
22:10 1015 29.97 844 24.92 0.5 33 62 -5.8 21.5
22:15 1015 29.97 844 24.92 0.5 32.9 63 -5.7 21.8
22:20 1015 29.97 844 24.92 0.4 32.7 64 -5.6 21.9
22:25 1015 29.97 844 24.92 0.3 32.6 65 -5.5 22.1
22:30 1015 29.97 844 24.92 0.3 32.5 66 -5.4 22.2
22:35 1015 29.97 844 24.92 0.2 32.4 66 -5.3 22.4
22:40 1015 29.97 844 24.92 0.2 32.3 67 -5.3 22.5
22:45 1015 29.97 845 24.95 0.1 32.2 68 -5.2 22.7
22:50 1015 29.97 844 24.92 0.1 32.2 68 -5.1 22.7
22:55 1015 29.97 845 24.95 0.1 32.2 68 -5.1 22.9
23:00 1015 29.97 845 24.95 0.2 32.3 68 -5 23
23:05 1015 29.97 845 24.95 0.2 32.4 68 -5 23.1
23:10 1015 29.97 845 24.95 0.2 32.4 69 -4.9 23.3
23:15 1015 29.97 845 24.95 0.2 32.4 69 -4.8 23.3
23:20 1015 29.97 845 24.95 0.2 32.3 69 -4.7 23.5
23:25 1016 30 845 24.95 0.2 32.3 70 -4.7 23.5
23:30 1016 30 845 24.95 0.1 32.2 71 -4.6 23.7
23:35 1016 30 845 24.95 0.1 32.1 72 -4.4 24
23:40 1016 30 845 24.95 -0.1 31.8 75 -4.1 24.6
23:45 1016 30 845 24.95 -0.3 31.4 78 -3.8 25.2
23:50 1016 30 845 24.95 -0.7 30.8 80 -3.6 25.4
23:55 1016 30 845 24.95 -0.9 30.4 83 -3.4 25.9
24:00 1016 30 845 24.95 -1 30.2 85 -3.3 26.1